Time;durP1;ratioP1;P1;durP2;ratioP2;P2;SDS_P1;SDS_P2;PMS_P1;PMS_P2;Temp;Humidity;BMP_temperature;BMP_pressure;BME280_temperature;BME280_humidity;BME280_pressure;Samples;Min_cycle;Max_cycle;Signal;HPM_P1;HPM_P2
2023/05/05 00:00:14;;;;;;;;;;;;;;;16.58;63.49;101755.66;5072304;28;19979;-85
2023/05/05 00:02:40;;;;;;;;;;;;;;;16.55;63.54;101755.50;5087150;28;19927;-86
2023/05/05 00:05:06;;;;;;;;;;;;;;;16.57;63.27;101759.13;5082389;28;20355;-85
2023/05/05 00:07:31;;;;;;;;;;;;;;;16.58;63.27;101756.56;5098401;28;19921;-85
2023/05/05 00:09:56;;;;;;;;;;;;;;;16.56;63.49;101759.97;5088109;28;20325;-84
2023/05/05 00:12:22;;;;;;;;;;;;;;;16.55;63.33;101759.06;5081980;28;19924;-85
2023/05/05 00:14:47;;;;;;;;;;;;;;;16.60;63.40;101759.28;5078009;28;19980;-85
2023/05/05 00:17:13;;;;;;;;;;;;;;;16.59;63.20;101762.72;5072918;28;19920;-85
2023/05/05 00:19:39;;;;;;;;;;;;;;;16.59;63.03;101766.25;5056343;28;20405;-85
2023/05/05 00:22:04;;;;;;;;;;;;;;;16.34;63.37;101736.97;5084581;28;19935;-85
2023/05/05 00:24:30;;;;;;;;;;;;;;;16.57;63.23;101772.28;5073286;28;19928;-85
2023/05/05 00:26:55;;;;;;;;;;;;;;;16.54;63.34;101775.69;5094759;28;19921;-85
2023/05/05 00:29:21;;;;;;;;;;;;;;;16.54;63.65;101766.91;5054796;28;19929;-85
2023/05/05 00:31:46;;;;;;;;;;;;;;;16.58;63.38;101776.75;5071340;28;20397;-85
2023/05/05 00:34:11;;;;;;;;;;;;;;;16.55;63.39;101772.25;5073006;28;20645;-85
2023/05/05 00:36:37;;;;;;;;;;;;;;;16.54;63.48;101774.81;5093590;28;19923;-84
2023/05/05 00:39:02;;;;;;;;;;;;;;;16.57;62.90;101773.19;5088026;28;19939;-84
2023/05/05 00:41:28;;;;;;;;;;;;;;;16.55;63.20;101771.31;5074418;28;20179;-85
2023/05/05 00:43:53;;;;;;;;;;;;;;;16.53;63.60;101767.72;5090989;28;19926;-85
2023/05/05 00:46:22;;;;;;;;;;;;;;;16.54;63.65;101764.25;5104923;28;19919;-85
2023/05/05 00:48:47;;;;;;;;;;;;;;;16.55;63.20;101766.06;5100133;28;19921;-85
2023/05/05 00:51:14;;;;;;;;;;;;;;;16.52;63.29;101763.28;5074905;28;20065;-85
2023/05/05 00:53:41;;;;;;;;;;;;;;;16.49;63.59;101769.34;5060727;28;19987;-85
2023/05/05 00:56:07;;;;;;;;;;;;;;;16.49;63.23;101766.69;5086673;28;19925;-86
2023/05/05 00:58:32;;;;;;;;;;;;;;;16.53;63.21;101763.38;5075930;28;19927;-86
2023/05/05 01:00:58;;;;;;;;;;;;;;;16.54;63.31;101764.25;5053827;28;20412;-85
2023/05/05 01:03:25;;;;;;;;;;;;;;;16.53;63.41;101751.88;5071174;28;19931;-83
2023/05/05 01:05:54;;;;;;;;;;;;;;;16.54;63.12;101754.59;5086425;28;19924;-85
2023/05/05 01:08:36;;;;;;;;;;;;;;;16.52;63.53;101752.75;5081145;28;19927;-86
2023/05/05 01:11:04;;;;;;;;;;;;;;;16.52;63.39;101748.34;5105079;28;19963;-84
2023/05/05 01:13:31;;;;;;;;;;;;;;;16.52;63.20;101747.47;5067508;28;19963;-83
2023/05/05 01:16:06;;;;;;;;;;;;;;;16.48;63.39;101741.13;5081208;28;19916;-84
2023/05/05 01:18:52;;;;;;;;;;;;;;;16.48;63.48;101742.03;5051485;28;19912;-84
2023/05/05 01:21:19;;;;;;;;;;;;;;;16.46;63.33;101746.34;5089781;28;19959;-84
2023/05/05 01:24:24;;;;;;;;;;;;;;;16.48;63.17;101747.31;5084414;28;19928;-84
2023/05/05 01:27:08;;;;;;;;;;;;;;;16.51;63.16;101740.38;5069835;28;19955;-85
2023/05/05 01:29:39;;;;;;;;;;;;;;;16.48;63.20;101735.88;5073171;28;19921;-85
2023/05/05 01:32:14;;;;;;;;;;;;;;;16.46;63.32;101732.25;5082048;28;19931;-85
2023/05/05 01:34:57;;;;;;;;;;;;;;;16.48;63.34;101725.31;5086157;28;19920;-85
2023/05/05 01:37:23;;;;;;;;;;;;;;;16.47;63.19;101723.53;5092721;28;20031;-85
2023/05/05 01:39:50;;;;;;;;;;;;;;;16.55;62.96;101724.78;5091737;28;19924;-85
2023/05/05 01:42:17;;;;;;;;;;;;;;;16.49;63.05;101717.50;5080635;28;19969;-85
2023/05/05 01:44:43;;;;;;;;;;;;;;;16.51;62.96;101724.56;5057354;28;20386;-85
2023/05/05 01:47:10;;;;;;;;;;;;;;;16.47;63.37;101718.25;5089325;28;19935;-85
2023/05/05 01:49:35;;;;;;;;;;;;;;;16.44;63.69;101721.63;5104689;28;19927;-85
2023/05/05 01:52:02;;;;;;;;;;;;;;;16.46;63.37;101714.69;5072209;28;19928;-85
2023/05/05 01:54:27;;;;;;;;;;;;;;;16.48;63.00;101720.03;5086230;28;19947;-84
2023/05/05 01:56:53;;;;;;;;;;;;;;;16.49;63.17;101717.50;5069004;28;19917;-85
2023/05/05 01:59:19;;;;;;;;;;;;;;;16.47;62.88;101719.16;5086216;28;20424;-85
2023/05/05 02:01:46;;;;;;;;;;;;;;;16.49;62.57;101722.75;5089308;28;20416;-85
2023/05/05 02:04:11;;;;;;;;;;;;;;;16.48;63.04;101722.69;5085982;28;19973;-85
2023/05/05 02:06:37;;;;;;;;;;;;;;;16.49;62.98;101711.31;5087197;28;20377;-85
2023/05/05 02:09:02;;;;;;;;;;;;;;;16.44;63.15;101708.44;5074011;28;19927;-85
2023/05/05 02:11:28;;;;;;;;;;;;;;;16.44;63.61;101713.72;5070011;28;20429;-85
2023/05/05 02:13:53;;;;;;;;;;;;;;;16.44;63.50;101710.19;5095526;28;20459;-85
2023/05/05 02:16:18;;;;;;;;;;;;;;;16.44;63.58;101707.56;5091675;28;19981;-84
2023/05/05 02:18:45;;;;;;;;;;;;;;;16.40;63.61;101710.88;5076556;28;19943;-85
2023/05/05 02:21:10;;;;;;;;;;;;;;;16.44;63.67;101704.91;5086966;28;20007;-84
2023/05/05 02:23:35;;;;;;;;;;;;;;;16.43;63.40;101701.38;5074840;28;20019;-85
2023/05/05 02:26:05;;;;;;;;;;;;;;;16.44;63.27;101702.28;5070847;28;20366;-85
2023/05/05 02:28:43;;;;;;;;;;;;;;;16.41;63.23;101705.69;5095254;28;19979;-85
2023/05/05 02:31:09;;;;;;;;;;;;;;;16.41;63.50;101708.31;5069427;28;19920;-85
2023/05/05 02:33:34;;;;;;;;;;;;;;;16.40;63.38;101703.91;5086621;28;19955;-84
2023/05/05 02:36:04;;;;;;;;;;;;;;;16.39;63.89;101706.47;5090366;28;19920;-84
2023/05/05 02:38:30;;;;;;;;;;;;;;;16.41;63.25;101704.78;5097408;28;19924;-85
2023/05/05 02:40:55;;;;;;;;;;;;;;;16.38;63.58;101709.91;5082973;28;19950;-84
2023/05/05 02:43:21;;;;;;;;;;;;;;;16.39;63.76;101710.00;5085843;28;20003;-85
2023/05/05 02:45:46;;;;;;;;;;;;;;;16.37;63.41;101705.50;5088201;28;20044;-85
2023/05/05 02:48:12;;;;;;;;;;;;;;;16.41;63.41;101705.69;5089056;28;19920;-84
2023/05/05 02:50:37;;;;;;;;;;;;;;;16.35;63.88;101707.16;5079798;28;20538;-85
2023/05/05 02:53:03;;;;;;;;;;;;;;;16.37;63.42;101705.50;5087222;28;20389;-85
2023/05/05 02:55:32;;;;;;;;;;;;;;;16.42;63.22;101707.47;5078546;28;19925;-84
2023/05/05 02:58:04;;;;;;;;;;;;;;;16.42;62.84;101707.47;5088986;28;19928;-86
2023/05/05 03:00:48;;;;;;;;;;;;;;;16.39;62.98;101701.19;5073559;28;19946;-84
2023/05/05 03:03:15;;;;;;;;;;;;;;;16.40;62.93;101706.53;5086973;28;19923;-85
2023/05/05 03:05:46;;;;;;;;;;;;;;;16.41;63.14;101702.16;5085054;28;19971;-85
2023/05/05 03:08:37;;;;;;;;;;;;;;;16.41;63.10;101696.88;5062636;28;19922;-85
2023/05/05 03:11:06;;;;;;;;;;;;;;;16.43;63.56;101700.50;5064504;28;20401;-86
2023/05/05 03:13:35;;;;;;;;;;;;;;;16.38;63.63;101697.66;5089413;28;20402;-86
2023/05/05 03:16:05;;;;;;;;;;;;;;;16.42;63.33;101698.69;5090781;28;20286;-86
2023/05/05 03:18:30;;;;;;;;;;;;;;;16.42;63.03;101702.19;5074959;28;19920;-85
2023/05/05 03:20:56;;;;;;;;;;;;;;;16.39;63.61;101706.47;5089714;28;20282;-86
2023/05/05 03:23:21;;;;;;;;;;;;;;;16.41;63.57;101704.78;5072903;28;19916;-86
2023/05/05 03:25:47;;;;;;;;;;;;;;;16.40;63.64;101711.81;5075071;28;19930;-85
2023/05/05 03:28:13;;;;;;;;;;;;;;;16.35;63.93;101709.78;5088778;28;19932;-86
2023/05/05 03:30:39;;;;;;;;;;;;;;;16.37;64.02;101708.13;5074941;28;19920;-86
2023/05/05 03:33:04;;;;;;;;;;;;;;;16.38;63.70;101712.56;5094425;28;19923;-86
2023/05/05 03:35:30;;;;;;;;;;;;;;;16.36;63.59;101711.56;5100971;28;19929;-85
2023/05/05 03:37:55;;;;;;;;;;;;;;;16.35;63.81;101710.69;5090399;28;20429;-85
2023/05/05 03:40:21;;;;;;;;;;;;;;;16.38;63.80;101720.47;5073287;28;20397;-85
2023/05/05 03:42:47;;;;;;;;;;;;;;;16.37;63.49;101716.94;5087959;28;19952;-85
2023/05/05 03:45:12;;;;;;;;;;;;;;;16.39;63.38;101717.00;5071520;28;19963;-86
2023/05/05 03:47:37;;;;;;;;;;;;;;;16.38;63.65;101716.13;5075875;28;19924;-83
2023/05/05 03:50:03;;;;;;;;;;;;;;;16.38;63.39;101718.75;5081146;28;20442;-85
2023/05/05 03:52:29;;;;;;;;;;;;;;;16.33;63.70;101722.00;5084172;28;20608;-85
2023/05/05 03:54:55;;;;;;;;;;;;;;;16.39;63.25;101724.91;5072584;28;19939;-85
2023/05/05 03:57:20;;;;;;;;;;;;;;;16.39;63.39;101724.91;5049717;28;20291;-85
2023/05/05 03:59:46;;;;;;;;;;;;;;;16.34;63.34;101727.34;5094441;28;19927;-85
2023/05/05 04:02:11;;;;;;;;;;;;;;;16.35;62.99;101723.88;5086003;28;20401;-85
2023/05/05 04:04:36;;;;;;;;;;;;;;;16.33;63.21;101725.53;5092175;28;19923;-87
2023/05/05 04:07:02;;;;;;;;;;;;;;;16.35;63.11;101730.88;5061984;28;20445;-85
2023/05/05 04:09:27;;;;;;;;;;;;;;;16.35;63.42;101739.69;5099603;27;19924;-86
2023/05/05 04:11:53;;;;;;;;;;;;;;;16.29;63.15;101732.38;5083902;28;19920;-85
2023/05/05 04:14:18;;;;;;;;;;;;;;;16.32;63.31;101738.63;5078110;28;20410;-86
2023/05/05 04:16:44;;;;;;;;;;;;;;;16.32;63.24;101738.63;5076835;28;19920;-86
2023/05/05 04:19:11;;;;;;;;;;;;;;;16.28;63.16;101735.88;5100944;28;20548;-87
2023/05/05 04:21:37;;;;;;;;;;;;;;;16.32;63.15;101734.28;5088982;28;20360;-87
2023/05/05 04:24:03;;;;;;;;;;;;;;;16.29;63.37;101734.13;5078217;28;19924;-86
2023/05/05 04:26:28;;;;;;;;;;;;;;;16.30;63.46;101733.31;5094793;28;19920;-86
2023/05/05 04:28:54;;;;;;;;;;;;;;;16.31;63.34;101731.56;5083197;28;19920;-86
2023/05/05 04:31:19;;;;;;;;;;;;;;;16.34;63.65;101729.06;5082303;28;19986;-86
2023/05/05 04:33:45;;;;;;;;;;;;;;;16.34;63.49;101724.72;5077324;28;20442;-86
2023/05/05 04:36:10;;;;;;;;;;;;;;;16.32;63.74;101717.53;5074898;28;19970;-86
2023/05/05 04:38:35;;;;;;;;;;;;;;;16.27;63.74;101712.97;5087830;28;19927;-86
2023/05/05 04:41:05;;;;;;;;;;;;;;;16.28;63.65;101719.16;5081442;28;20427;-86
2023/05/05 04:43:30;;;;;;;;;;;;;;;16.32;63.66;101712.25;5087188;28;19981;-84
2023/05/05 04:45:56;;;;;;;;;;;;;;;16.34;63.68;101710.59;5083986;28;19916;-84
2023/05/05 04:48:21;;;;;;;;;;;;;;;16.31;63.71;101708.72;5079183;28;19979;-83
2023/05/05 04:50:46;;;;;;;;;;;;;;;16.26;64.29;101705.00;5088033;28;19921;-84
2023/05/05 04:53:12;;;;;;;;;;;;;;;16.23;64.14;101710.13;5079809;28;20455;-85
2023/05/05 04:55:40;;;;;;;;;;;;;;;16.27;63.99;101718.22;5076017;28;19924;-85
2023/05/05 04:58:05;;;;;;;;;;;;;;;16.24;63.97;101715.47;5095342;28;19924;-85
2023/05/05 05:00:31;;;;;;;;;;;;;;;16.25;63.98;101727.78;5101990;28;19926;-85
2023/05/05 05:02:56;;;;;;;;;;;;;;;16.25;63.81;101740.06;5078395;28;19978;-85
2023/05/05 05:05:22;;;;;;;;;;;;;;;16.20;63.87;101725.81;5095705;28;20456;-85
2023/05/05 05:07:47;;;;;;;;;;;;;;;16.24;63.79;101728.66;5068424;28;19921;-85
2023/05/05 05:10:13;;;;;;;;;;;;;;;16.25;63.59;101729.53;5078617;28;19924;-84
2023/05/05 05:12:39;;;;;;;;;;;;;;;16.28;63.75;101725.31;5077918;28;20301;-83
2023/05/05 05:15:05;;;;;;;;;;;;;;;16.23;63.59;101732.13;5073820;28;20007;-84
2023/05/05 05:17:30;;;;;;;;;;;;;;;16.23;63.78;101732.13;5076618;28;20397;-84
2023/05/05 05:19:58;;;;;;;;;;;;;;;16.27;63.58;101734.03;5090021;28;19920;-84
2023/05/05 05:22:23;;;;;;;;;;;;;;;16.27;63.78;101730.50;5074189;28;20412;-84
2023/05/05 05:24:49;;;;;;;;;;;;;;;16.22;63.80;101732.94;5077214;28;19916;-85
2023/05/05 05:27:14;;;;;;;;;;;;;;;16.15;64.18;101736.13;5055506;28;19931;-85
2023/05/05 05:29:40;;;;;;;;;;;;;;;16.21;63.90;101740.78;5081854;28;19924;-84
2023/05/05 05:32:05;;;;;;;;;;;;;;;16.23;63.49;101741.75;5102602;28;19920;-84
2023/05/05 05:34:30;;;;;;;;;;;;;;;16.28;63.32;101742.88;5091943;28;20373;-81
2023/05/05 05:36:56;;;;;;;;;;;;;;;16.05;64.06;101739.16;5077167;28;20460;-83
2023/05/05 05:39:22;;;;;;;;;;;;;;;16.04;64.06;101746.19;5086358;28;20378;-82
2023/05/05 05:41:47;;;;;;;;;;;;;;;16.00;64.19;101746.84;5069859;28;20390;-82
2023/05/05 05:44:13;;;;;;;;;;;;;;;16.04;63.91;101746.19;5073719;28;19916;-82
2023/05/05 05:46:38;;;;;;;;;;;;;;;16.12;63.75;101754.41;5064414;28;20460;-83
2023/05/05 05:49:03;;;;;;;;;;;;;;;16.20;63.49;101746.88;5086487;28;19917;-82
2023/05/05 05:51:30;;;;;;;;;;;;;;;16.15;63.57;101754.59;5071126;28;19920;-82
2023/05/05 05:53:55;;;;;;;;;;;;;;;16.14;63.53;101759.78;5053433;28;20382;-82
2023/05/05 05:56:21;;;;;;;;;;;;;;;16.22;63.31;101756.66;5096773;28;19938;-82
2023/05/05 05:58:47;;;;;;;;;;;;;;;16.14;63.52;101765.03;5056823;28;20297;-82
2023/05/05 06:01:13;;;;;;;;;;;;;;;16.09;63.63;101762.19;5071287;28;19920;-82
2023/05/05 06:03:38;;;;;;;;;;;;;;;16.06;63.63;101765.59;5084630;28;20000;-82
2023/05/05 06:06:04;;;;;;;;;;;;;;;16.11;63.54;101771.06;5069869;28;20306;-82
2023/05/05 06:08:29;;;;;;;;;;;;;;;16.08;63.70;101778.81;5070986;28;19986;-82
2023/05/05 06:10:55;;;;;;;;;;;;;;;16.10;63.62;101771.88;5071462;28;19973;-82
2023/05/05 06:13:20;;;;;;;;;;;;;;;16.02;63.80;101775.88;5087760;28;20347;-82
2023/05/05 06:15:46;;;;;;;;;;;;;;;16.00;63.78;101780.19;5071437;28;20409;-82
2023/05/05 06:18:11;;;;;;;;;;;;;;;16.01;63.76;101782.00;5071014;28;20355;-82
2023/05/05 06:20:36;;;;;;;;;;;;;;;16.02;63.66;101779.44;5073776;28;19931;-82
2023/05/05 06:23:02;;;;;;;;;;;;;;;15.98;63.98;101788.03;5089159;28;20676;-82
2023/05/05 06:25:27;;;;;;;;;;;;;;;16.05;63.74;101781.31;5073927;28;19916;-82
2023/05/05 06:27:53;;;;;;;;;;;;;;;16.14;63.41;101791.41;5080746;28;20321;-82
2023/05/05 06:30:18;;;;;;;;;;;;;;;16.09;63.48;101791.19;5082670;28;19917;-82
2023/05/05 06:32:44;;;;;;;;;;;;;;;16.15;63.15;101794.13;5092154;28;19923;-81
2023/05/05 06:35:09;;;;;;;;;;;;;;;16.09;63.45;101793.81;5102347;28;19924;-81
2023/05/05 06:37:35;;;;;;;;;;;;;;;16.14;63.32;101797.56;5093222;28;20408;-81
2023/05/05 06:40:00;;;;;;;;;;;;;;;16.17;63.20;101797.72;5074838;28;19916;-81
2023/05/05 06:42:26;;;;;;;;;;;;;;;16.11;63.40;101796.50;5074564;28;20374;-83
2023/05/05 06:44:51;;;;;;;;;;;;;;;16.10;63.40;101794.72;5082360;28;20424;-82
2023/05/05 06:47:17;;;;;;;;;;;;;;;16.12;63.42;101793.94;5072221;28;20419;-84
2023/05/05 06:49:42;;;;;;;;;;;;;;;16.18;63.26;101802.16;5074696;28;19924;-83
2023/05/05 06:52:07;;;;;;;;;;;;;;;16.20;63.26;101800.50;5074265;28;20393;-84
2023/05/05 06:54:33;;;;;;;;;;;;;;;16.12;63.47;101800.97;5074616;28;20301;-80
2023/05/05 06:56:58;;;;;;;;;;;;;;;16.16;63.13;101798.53;5087804;28;20385;-82
2023/05/05 06:59:24;;;;;;;;;;;;;;;16.09;63.29;101804.34;5074292;28;19952;-82
2023/05/05 07:01:50;;;;;;;;;;;;;;;16.16;63.24;101803.81;5074199;28;20385;-83
2023/05/05 07:04:16;;;;;;;;;;;;;;;16.22;63.03;101798.84;5074737;28;20351;-82
2023/05/05 07:06:41;;;;;;;;;;;;;;;16.07;63.49;101808.66;5086921;28;20006;-81
2023/05/05 07:09:06;;;;;;;;;;;;;;;16.08;63.46;101810.44;5090076;28;20390;-83
2023/05/05 07:11:32;;;;;;;;;;;;;;;16.10;63.38;101810.53;5089651;28;20688;-83
2023/05/05 07:13:57;;;;;;;;;;;;;;;16.17;63.14;101805.63;5074460;28;20460;-81
2023/05/05 07:16:23;;;;;;;;;;;;;;;16.07;63.52;101812.19;5089662;28;19920;-83
2023/05/05 07:18:49;;;;;;;;;;;;;;;16.05;63.59;101815.56;5083288;28;19951;-82
2023/05/05 07:21:14;;;;;;;;;;;;;;;16.08;63.50;101813.06;5091478;28;19920;-82
2023/05/05 07:23:40;;;;;;;;;;;;;;;16.11;63.26;101810.59;5089829;28;19959;-83
2023/05/05 07:26:05;;;;;;;;;;;;;;;16.15;63.20;101811.63;5089352;28;19975;-82
2023/05/05 07:28:30;;;;;;;;;;;;;;;16.16;63.27;101809.06;5089703;28;19916;-83
2023/05/05 07:30:56;;;;;;;;;;;;;;;16.16;63.20;101813.44;5089272;28;19917;-83
2023/05/05 07:33:21;;;;;;;;;;;;;;;16.22;62.97;101808.47;5072998;28;20536;-82
2023/05/05 07:35:47;;;;;;;;;;;;;;;16.14;63.19;101805.47;5087135;28;19923;-82
2023/05/05 07:38:12;;;;;;;;;;;;;;;16.10;63.44;101815.78;5073604;28;20390;-82
2023/05/05 07:40:37;;;;;;;;;;;;;;;16.14;63.32;101801.94;5073727;28;20436;-82
2023/05/05 07:43:03;;;;;;;;;;;;;;;16.14;63.34;101801.94;5073340;28;20441;-82
2023/05/05 07:45:30;;;;;;;;;;;;;;;16.19;63.26;101805.69;5086582;28;19920;-82
2023/05/05 07:47:55;;;;;;;;;;;;;;;16.22;63.16;101801.47;5073800;28;19923;-83
2023/05/05 07:50:21;;;;;;;;;;;;;;;16.24;63.00;101806.81;5073221;28;20010;-83
2023/05/05 07:52:46;;;;;;;;;;;;;;;16.24;63.12;101801.56;5073359;28;19916;-84
2023/05/05 07:55:12;;;;;;;;;;;;;;;16.24;63.20;101805.06;5073339;28;19923;-83
2023/05/05 07:57:37;;;;;;;;;;;;;;;16.23;63.32;101805.94;5088643;28;20405;-83
2023/05/05 08:00:03;;;;;;;;;;;;;;;16.19;63.42;101792.50;5073310;28;20344;-83
2023/05/05 08:02:28;;;;;;;;;;;;;;;16.24;63.15;101805.06;5073328;28;19959;-82
2023/05/05 08:04:54;;;;;;;;;;;;;;;16.21;63.16;101797.03;5073228;28;19951;-83
2023/05/05 08:07:19;;;;;;;;;;;;;;;16.27;63.11;101794.66;5073345;28;19920;-83
2023/05/05 08:09:45;;;;;;;;;;;;;;;16.23;63.31;101795.38;5086471;28;19962;-84
2023/05/05 08:12:11;;;;;;;;;;;;;;;16.27;63.17;101793.78;5055124;28;19917;-83
2023/05/05 08:14:37;;;;;;;;;;;;;;;16.28;63.13;101783.31;5072977;28;19935;-84
2023/05/05 08:17:02;;;;;;;;;;;;;;;16.22;63.58;101788.28;5073302;28;20366;-84
2023/05/05 08:19:28;;;;;;;;;;;;;;;16.27;63.38;101786.75;5072883;28;19924;-83
2023/05/05 08:21:54;;;;;;;;;;;;;;;16.32;63.22;101786.06;5072940;28;19964;-84
2023/05/05 08:24:20;;;;;;;;;;;;;;;16.37;63.26;101780.19;5072838;28;20588;-84
2023/05/05 08:26:45;;;;;;;;;;;;;;;16.36;63.39;101786.31;5072906;28;19956;-84
2023/05/05 08:29:11;;;;;;;;;;;;;;;16.41;63.01;101782.16;5072670;28;19916;-84
2023/05/05 08:31:36;;;;;;;;;;;;;;;16.38;63.22;101779.38;5072621;28;19947;-84
2023/05/05 08:34:03;;;;;;;;;;;;;;;16.35;63.47;101778.31;5072604;28;20382;-84
2023/05/05 08:36:28;;;;;;;;;;;;;;;16.43;63.32;101777.84;5072559;28;19921;-84
2023/05/05 08:38:54;;;;;;;;;;;;;;;16.45;63.19;101789.38;5072534;28;19970;-84
2023/05/05 08:41:20;;;;;;;;;;;;;;;16.44;63.03;101784.00;5072516;28;20460;-83
2023/05/05 08:43:46;;;;;;;;;;;;;;;16.44;63.19;101789.28;5072815;28;19912;-84
2023/05/05 08:46:11;;;;;;;;;;;;;;;16.45;63.48;101796.38;5087982;28;19921;-84
2023/05/05 08:48:37;;;;;;;;;;;;;;;16.42;63.22;101789.22;5088437;28;19921;-84
2023/05/05 08:51:03;;;;;;;;;;;;;;;16.43;63.42;101795.41;5072393;28;19927;-84
2023/05/05 08:53:34;;;;;;;;;;;;;;;16.43;63.42;101791.03;5100398;28;20002;-84
2023/05/05 08:56:00;;;;;;;;;;;;;;;15.96;63.98;101728.16;5088068;28;19920;-83
2023/05/05 08:58:25;;;;;;;;;;;;;;;16.44;63.43;101807.75;5085195;28;20034;-84
2023/05/05 09:00:51;;;;;;;;;;;;;;;16.44;63.53;101798.09;5107951;28;19927;-84
2023/05/05 09:03:16;;;;;;;;;;;;;;;16.45;63.49;101797.28;5078666;28;19912;-84
2023/05/05 09:05:42;;;;;;;;;;;;;;;16.43;63.95;101803.31;5094753;28;19917;-84
2023/05/05 09:08:09;;;;;;;;;;;;;;;16.39;63.88;101806.63;5077014;28;19916;-83
2023/05/05 09:10:35;;;;;;;;;;;;;;;16.42;63.83;101812.94;5071915;28;19917;-83
2023/05/05 09:13:02;;;;;;;;;;;;;;;16.36;63.91;101814.38;5087253;28;19920;-84
2023/05/05 09:15:28;;;;;;;;;;;;;;;16.34;64.14;101811.69;5078280;28;19920;-84
2023/05/05 09:17:55;;;;;;;;;;;;;;;16.39;63.89;101817.19;5077415;28;19966;-82
2023/05/05 09:20:21;;;;;;;;;;;;;;;16.44;63.77;101824.47;5087913;28;20007;-84
2023/05/05 09:22:46;;;;;;;;;;;;;;;16.42;63.74;101820.84;5055362;28;20384;-82
2023/05/05 09:25:15;;;;;;;;;;;;;;;16.43;63.65;101819.13;5083674;28;20286;-83
2023/05/05 09:27:45;;;;;;;;;;;;;;;16.44;63.52;101824.47;5070752;28;19928;-83
2023/05/05 09:30:11;;;;;;;;;;;;;;;16.49;63.51;101828.22;5077618;28;20050;-81
2023/05/05 09:32:44;;;;;;;;;;;;;;;16.52;63.40;101829.22;5089176;28;20297;-84
2023/05/05 09:35:09;;;;;;;;;;;;;;;16.54;63.34;101830.19;5082807;28;19916;-82
2023/05/05 09:37:35;;;;;;;;;;;;;;;16.56;63.44;101816.22;5073586;28;19940;-84
2023/05/05 09:40:00;;;;;;;;;;;;;;;16.58;63.10;101817.22;5071629;28;20401;-83
2023/05/05 09:42:26;;;;;;;;;;;;;;;16.55;63.25;101827.63;5086641;28;19924;-83
2023/05/05 09:44:51;;;;;;;;;;;;;;;16.56;63.23;101812.69;5078540;28;20069;-84
2023/05/05 09:47:17;;;;;;;;;;;;;;;16.57;63.25;101810.09;5077560;28;19920;-84
2023/05/05 09:49:43;;;;;;;;;;;;;;;16.59;63.33;101815.47;5087062;28;19921;-84
2023/05/05 09:52:15;;;;;;;;;;;;;;;16.65;63.26;101811.38;5088280;28;19950;-84
2023/05/05 09:54:40;;;;;;;;;;;;;;;16.70;62.95;101814.25;5082805;28;19990;-84
2023/05/05 09:57:06;;;;;;;;;;;;;;;16.71;62.96;101817.78;5086484;28;19920;-84
2023/05/05 09:59:31;;;;;;;;;;;;;;;16.67;63.11;101812.34;5082417;28;19924;-84
2023/05/05 10:02:11;;;;;;;;;;;;;;;16.66;63.26;101813.19;5053179;28;19917;-83
2023/05/05 10:04:37;;;;;;;;;;;;;;;16.62;63.37;101803.34;5086928;28;19916;-85
2023/05/05 10:07:02;;;;;;;;;;;;;;;16.67;63.13;101808.81;5071279;28;19924;-84
2023/05/05 10:09:28;;;;;;;;;;;;;;;16.62;63.27;101805.06;5071536;28;19969;-86
2023/05/05 10:11:53;;;;;;;;;;;;;;;16.63;63.51;101805.13;5087081;28;19917;-85
2023/05/05 10:14:19;;;;;;;;;;;;;;;16.66;63.25;101800.00;5098986;28;19916;-86
2023/05/05 10:16:49;;;;;;;;;;;;;;;16.69;63.35;101802.75;5071536;28;19923;-86
2023/05/05 10:19:17;;;;;;;;;;;;;;;16.68;63.33;101797.44;5099791;28;19923;-90
2023/05/05 10:21:47;;;;;;;;;;;;;;;16.70;63.20;101795.78;5071583;28;20558;-87
2023/05/05 10:24:15;;;;;;;;;;;;;;;16.76;63.18;101790.75;5086746;28;19923;-87
2023/05/05 10:26:41;;;;;;;;;;;;;;;16.79;62.98;101782.09;5086760;28;20385;-85
2023/05/05 10:29:10;;;;;;;;;;;;;;;16.81;63.26;101773.44;5087686;28;19916;-84
2023/05/05 10:31:48;;;;;;;;;;;;;;;16.81;63.23;101778.72;5082922;28;19947;-84
2023/05/05 10:34:24;;;;;;;;;;;;;;;16.83;63.07;101769.16;5086347;28;19928;-88
2023/05/05 10:36:49;;;;;;;;;;;;;;;16.83;63.03;101761.22;5086495;28;19913;-85
2023/05/05 10:39:15;;;;;;;;;;;;;;;16.83;63.18;101763.88;5069932;28;19917;-86
2023/05/05 10:41:40;;;;;;;;;;;;;;;16.79;63.29;101758.34;5099007;28;19931;-86
2023/05/05 10:44:06;;;;;;;;;;;;;;;16.78;63.24;101753.91;5086339;28;19916;-85
2023/05/05 10:46:31;;;;;;;;;;;;;;;16.80;63.26;101758.44;5070910;28;20007;-86
2023/05/05 10:48:59;;;;;;;;;;;;;;;16.84;63.34;101754.22;5086379;28;20375;-86
2023/05/05 10:51:38;;;;;;;;;;;;;;;16.80;63.25;101737.34;5079505;28;20057;-86
2023/05/05 10:54:09;;;;;;;;;;;;;;;16.80;63.22;101744.31;5073248;28;19916;-86
2023/05/05 10:56:35;;;;;;;;;;;;;;;16.81;63.29;101741.78;5086663;28;19916;-86
2023/05/05 10:59:00;;;;;;;;;;;;;;;16.85;63.18;101732.28;5070107;28;19925;-85
2023/05/05 11:01:32;;;;;;;;;;;;;;;16.86;63.12;101727.06;5081951;28;19951;-86
2023/05/05 11:04:17;;;;;;;;;;;;;;;16.91;63.06;101718.44;5087085;28;19928;-87
2023/05/05 11:07:02;;;;;;;;;;;;;;;16.81;63.27;101717.16;5086175;28;19920;-87
2023/05/05 11:09:27;;;;;;;;;;;;;;;16.83;63.15;101715.50;5100481;28;19920;-86
2023/05/05 11:12:03;;;;;;;;;;;;;;;16.90;63.25;101714.91;5074918;28;19920;-87
2023/05/05 11:14:28;;;;;;;;;;;;;;;16.87;63.03;101702.50;5089902;28;20019;-87
2023/05/05 11:16:54;;;;;;;;;;;;;;;16.86;63.07;101700.66;5056287;28;19944;-86
2023/05/05 11:19:39;;;;;;;;;;;;;;;16.87;63.37;101691.94;5069352;28;20301;-86
2023/05/05 11:22:04;;;;;;;;;;;;;;;16.84;62.82;101690.91;5083419;28;19916;-84
2023/05/05 11:24:29;;;;;;;;;;;;;;;16.88;63.23;101695.47;5093919;28;20004;-85
2023/05/05 11:26:55;;;;;;;;;;;;;;;16.88;63.25;101688.44;5073995;28;19958;-85
2023/05/05 11:29:20;;;;;;;;;;;;;;;16.92;63.28;101691.22;5073861;28;19977;-86
2023/05/05 11:31:52;;;;;;;;;;;;;;;16.92;63.01;101681.56;5074049;28;20390;-87
2023/05/05 11:34:25;;;;;;;;;;;;;;;16.95;63.19;101681.69;5072231;28;19913;-86
2023/05/05 11:36:51;;;;;;;;;;;;;;;17.01;62.80;101674.03;5089446;28;19924;-86
2023/05/05 11:39:16;;;;;;;;;;;;;;;17.01;63.01;101670.50;5056919;28;19913;-86
2023/05/05 11:41:51;;;;;;;;;;;;;;;16.94;62.84;101668.47;5085993;28;20309;-86
2023/05/05 11:44:19;;;;;;;;;;;;;;;16.96;63.02;101665.03;5087128;28;19916;-86
2023/05/05 11:46:51;;;;;;;;;;;;;;;17.05;62.59;101653.97;5092359;28;19921;-86
2023/05/05 11:49:32;;;;;;;;;;;;;;;17.04;62.77;101647.78;5098467;28;19951;-86
2023/05/05 11:51:59;;;;;;;;;;;;;;;17.05;62.79;101653.97;5064588;28;19962;-85
2023/05/05 11:54:24;;;;;;;;;;;;;;;17.02;62.93;101644.19;5055832;28;19916;-85
2023/05/05 11:56:54;;;;;;;;;;;;;;;17.01;62.76;101647.66;5088651;28;20188;-84
2023/05/05 11:59:19;;;;;;;;;;;;;;;17.05;62.74;101646.94;5099168;27;19974;-85
2023/05/05 12:01:45;;;;;;;;;;;;;;;17.05;62.74;101632.84;5099515;28;19920;-84
2023/05/05 12:04:11;;;;;;;;;;;;;;;17.10;62.63;101636.56;5095515;27;19920;-85
2023/05/05 12:06:36;;;;;;;;;;;;;;;17.09;62.73;101632.16;5087952;28;19923;-86
2023/05/05 12:12:52;;;;;;;;;;;;;;;17.05;62.94;101622.28;5092990;28;19923;-84
2023/05/05 12:15:55;;;;;;;;;;;;;;;17.06;62.96;101616.19;5028364;28;19921;-84
2023/05/05 12:24:37;;;;;;;;;;;;;;;17.16;62.95;101604.25;5029682;28;19924;-85
2023/05/05 12:27:41;;;;;;;;;;;;;;;17.20;62.85;101593.00;5024587;28;19939;-85
2023/05/05 12:30:46;;;;;;;;;;;;;;;17.25;62.87;101599.34;5066234;28;19944;-85
2023/05/05 12:36:52;;;;;;;;;;;;;;;17.26;62.68;101574.75;5052572;28;19928;-85
2023/05/05 12:39:37;;;;;;;;;;;;;;;17.21;62.67;101571.06;5047265;28;19971;-85
2023/05/05 12:42:03;;;;;;;;;;;;;;;17.19;62.88;101570.09;5048961;28;19963;-86
2023/05/05 12:44:35;;;;;;;;;;;;;;;17.23;62.88;101558.78;5061583;28;19924;-84
2023/05/05 12:47:01;;;;;;;;;;;;;;;17.18;62.89;101544.50;5082354;28;19972;-84
2023/05/05 12:49:26;;;;;;;;;;;;;;;17.18;63.26;101541.88;5077426;28;20352;-84